• Join FlightAware (Why Join?)
  • Login
  • US Flag 
03:59AM EST


 

Airport Tracker/Info


-or-


 

Live Flight TrackerFlight Track Log ✈ N654DL ✈ 22-Apr-2013 ✈ KSFO - KATL

Flight Track Log - Related Links

Times and Time Zones

All times are in EDT time to prevent confusion due to time zone crossing. See the N654DL flight status page for this flight to view local times or setup timezone preferences in your user account.

Time Position Orientation Groundspeed Altitude Reporting Facility
EDT Latitude Longitude Course Direction KTS MPH feet Rate Location/Type
09:42AM 37.6333 -122.3500 78° East 172 198 1,400  Level Northern Cal TRACON
09:43AM 37.6833 -122.3333 15° North 174 200 3,000 1,680 Climbing Northern Cal TRACON
09:44AM 37.7253 -122.3392 354° North 238 274 4,400 2,460 Climbing Oakland Center
09:45AM 37.9485 -122.2770 80° East  Level FlightAware Approximate
09:45AM 37.7914 -122.3761 336° Northwest 259 298 7,600  Level Oakland Center
09:46AM 37.9636 -122.1036 84° East  Level FlightAware Approximate
09:46AM 37.8519 -122.3361 28° Northeast 273 314 10,600  Level Oakland Center
09:47AM 37.9701 -121.9298 78° East  Level FlightAware Approximate
09:47AM 37.8700 -122.2289 78° East 307 353 11,700  Level Oakland Center
09:48AM 37.8914 -122.0992 78° East 371 427 13,400 1,920 Climbing Oakland Center
09:49AM 37.9158 -121.9611 77° East 398 458 15,700 2,160 Climbing Oakland Center
09:50AM 37.9394 -121.8194 78° East 411 473 17,800 1,920 Climbing Oakland Center
09:51AM 37.9647 -121.6714 78° East 427 491 19,600 1,800 Climbing Oakland Center
09:52AM 37.9897 -121.5183 78° East 442 509 21,500 1,920 Climbing Oakland Center
09:53AM 38.0175 -121.3486 78° East 450 518 23,600 1,680 Climbing Oakland Center
09:54AM 38.0447 -121.1906 78° East 459 528 25,000 1,320 Climbing Oakland Center
09:55AM 38.0708 -121.0281 78° East 470 541 26,400 1,200 Climbing Oakland Center
09:56AM 38.1069 -120.8661 74° East 481 554 27,500 1,140 Climbing Oakland Center
09:57AM 38.1408 -120.6983 76° East 492 566 28,700 1,620 Climbing Oakland Center
09:58AM 38.1747 -120.4961 78° East 491 565 30,900 1,680 Climbing Oakland Center
09:59AM 38.2044 -120.3317 77° East 482 555 32,200 1,260 Climbing Oakland Center
10:00AM 38.2344 -120.1661 77° East 480 552 33,500 1,140 Climbing Oakland Center
10:01AM 38.2639 -120.0022 77° East 478 550 34,500 720 Climbing Oakland Center
10:02AM 38.2925 -119.8386 77° East 477 549 35,000 240 Climbing Oakland Center
10:03AM 38.3214 -119.6731 77° East 479 551 35,000  Level Oakland Center
10:04AM 38.3497 -119.5058 78° East 482 555 35,000  Level Oakland Center
10:05AM 38.3811 -119.3214 78° East 485 558 35,000  Level Oakland Center
10:06AM 38.4086 -119.1544 78° East 485 558 35,000  Level Oakland Center
10:07AM 38.4367 -118.9864 78° East 486 559 35,000  Level Oakland Center
10:08AM 38.4639 -118.8197 78° East 483 556 35,000  Level Oakland Center
10:09AM 38.4903 -118.6519 79° East 484 557 35,000  Level Oakland Center
10:10AM 38.5175 -118.4836 78° East 485 558 35,000  Level Oakland Center
10:11AM 38.5439 -118.3153 79° East 486 559 35,000  Level Oakland Center
10:12AM 38.5711 -118.1461 78° East 488 562 35,000  Level Oakland Center
10:13AM 38.5972 -117.9717 79° East 492 566 35,000  Level Oakland Center
10:14AM 38.6242 -117.7992 79° East 493 567 35,000  Level Oakland Center
10:15AM 38.6442 -117.6614 79° East 493 567 35,000  Level Salt Lake Center
10:15AM 38.6494 -117.6261 79° East 492 566 35,000  Level Oakland Center
10:16AM 38.6756 -117.4525 79° East 493 567 35,000  Level Oakland Center
10:17AM 38.6958 -117.3142 79° East 493 567 35,000  Level Salt Lake Center
10:18AM 38.7211 -117.1406 79° East 492 566 35,000  Level Salt Lake Center
10:18AM 38.7264 -117.1058 79° East 493 567 35,000  Level Oakland Center
10:19AM 38.7519 -116.9339 79° East 490 564 35,000  Level Oakland Center
10:20AM 38.7711 -116.7953 80° East 490 564 35,000  Level Salt Lake Center
10:21AM 38.7958 -116.6208 80° East 494 568 35,000  Level Salt Lake Center
10:21AM 38.8008 -116.5861 80° East 496 571 35,000  Level Oakland Center
10:22AM 38.8300 -116.3769 80° East 496 571 35,000  Level Oakland Center
10:23AM 38.8450 -116.2722 80° East 496 571 35,000  Level Salt Lake Center
10:24AM 38.8683 -116.0947 80° East 502 578 35,000  Level Salt Lake Center
10:25AM 38.8933 -115.9172 80° East 504 580 35,000  Level Salt Lake Center
10:26AM 38.9158 -115.7397 81° East 502 578 35,000  Level Salt Lake Center
10:27AM 38.9403 -115.5619 80° East 506 582 35,000  Level Salt Lake Center
10:28AM 38.9681 -115.3492 80° East 510 587 35,000  Level Salt Lake Center
10:29AM 38.9919 -115.1683 80° East 514 592 35,000  Level Salt Lake Center
10:30AM 39.0153 -114.9883 80° East 512 589 35,000  Level Salt Lake Center
10:31AM 39.0372 -114.8064 81° East 515 593 35,000  Level Salt Lake Center
10:32AM 39.0617 -114.6242 80° East 516 594 35,000  Level Salt Lake Center
10:33AM 39.0833 -114.4417 81° East 516 594 35,000  Level Salt Lake Center
10:34AM 39.1058 -114.2592 81° East 517 595 35,000  Level Salt Lake Center
10:35AM 39.1272 -114.0772 81° East 515 593 35,000  Level Salt Lake Center
10:36AM 39.1494 -113.8933 81° East 519 597 35,000  Level Salt Lake Center
10:37AM 39.1708 -113.7081 81° East 521 600 35,000  Level Salt Lake Center
10:38AM 39.1958 -113.4861 82° East 523 602 35,000  Level Salt Lake Center
10:39AM 39.2161 -113.3025 82° East 520 598 35,000  Level Salt Lake Center
10:40AM 39.2369 -113.1133 82° East 528 608 35,000  Level Salt Lake Center
10:41AM 39.2581 -112.9278 82° East 526 605 35,000  Level Salt Lake Center
10:42AM 39.2781 -112.7389 82° East 529 609 35,000  Level Salt Lake Center
10:43AM 39.2994 -112.5300 82° East 531 611 35,000  Level Salt Lake Center
10:44AM 39.2969 -112.3392 91° East 533 613 35,000  Level Salt Lake Center
10:45AM 39.2853 -112.1469 94° East 539 620 35,000  Level Salt Lake Center
10:46AM 39.2736 -111.9544 94° East 541 623 35,000  Level Salt Lake Center
10:47AM 39.2639 -111.7619 94° East 542 624 35,000  Level Salt Lake Center
10:48AM 39.2536 -111.5697 94° East 541 623 35,000  Level Salt Lake Center
10:49AM 39.2403 -111.3547 95° East 537 618 35,000  Level Salt Lake Center
10:50AM 39.2281 -111.1533 94° East 541 623 35,000  Level Salt Lake Center
10:52AM 39.2158 -110.9694 95° East 539 620 35,000  Level Salt Lake Center
10:53AM 39.2050 -110.7883 94° East 533 613 35,000  Level Salt Lake Center
10:54AM 39.1919 -110.5783 95° East 529 609 35,000  Level Salt Lake Center
10:54AM 39.1825 -110.4544 96° East 534 615 35,000  Level Denver Center
10:55AM 39.1700 -110.2728 95° East 534 615 35,000  Level Denver Center
10:56AM 39.1647 -110.1833 94° East 536 617 35,000  Level Salt Lake Center
10:57AM 39.1531 -110.0011 95° East 536 617 35,000  Level Salt Lake Center
10:58AM 39.1358 -109.7881 96° East 537 618 35,000  Level Salt Lake Center
10:58AM 39.1269 -109.6631 95° East 540 621 35,000  Level Denver Center
10:59AM 39.1122 -109.4786 96° East 543 625 35,000  Level Denver Center
11:00AM 39.0956 -109.2642 96° East 543 625 35,000  Level Denver Center
11:01AM 39.0828 -109.0808 95° East 540 621 35,000  Level Denver Center
11:03AM 39.0650 -108.8664 96° East 543 625 35,000  Level Denver Center
11:04AM 39.0472 -108.7136 98° East 544 626 35,000  Level Denver Center
11:05AM 39.0089 -108.4714 101° East 545 627 35,000  Level Denver Center
11:06AM 38.9800 -108.2883 101° East 547 629 35,000  Level Denver Center
11:07AM 38.9461 -108.0750 101° East 547 629 35,000  Level Denver Center
11:08AM 38.9164 -107.8933 102° East 546 628 35,000  Level Denver Center
11:09AM 38.8822 -107.6811 102° East 545 627 35,000  Level Denver Center
11:10AM 38.8511 -107.4964 102° East 550 633 35,000  Level Denver Center
11:11AM 38.8150 -107.2828 102° East 552 635 35,000  Level Denver Center
11:12AM 38.7825 -107.0933 102° East 556 640 35,000  Level Denver Center
11:13AM 38.7500 -106.9025 102° East 554 638 35,000  Level Denver Center
11:14AM 38.7083 -106.6694 103° East 553 636 35,000  Level Denver Center
11:15AM 38.6697 -106.4431 102° East 554 638 35,000  Level Denver Center
11:16AM 38.6342 -106.2531 103° East 553 636 35,000  Level Denver Center
11:17AM 38.6008 -106.0569 102° East 554 638 35,000  Level Denver Center
11:18AM 38.5669 -105.8733 103° East 554 638 35,000  Level Denver Center
11:19AM 38.5314 -105.6767 103° East 551 634 35,000  Level Denver Center
11:20AM 38.4897 -105.4531 103° East 553 636 35,000  Level Denver Center
11:21AM 38.4547 -105.2614 103° East 552 635 35,000  Level Denver Center
11:22AM 38.4189 -105.0731 104° East 545 627 35,000  Level Denver Center
11:23AM 38.3861 -104.8861 103° East 539 620 35,000  Level Denver Center
11:24AM 38.3692 -104.6967 96° East 537 618 35,000  Level Denver Center
11:25AM 38.3503 -104.5103 97° East 531 611 35,000  Level Denver Center
11:26AM 38.3269 -104.3078 98° East 532 612 35,000  Level Denver Center
11:28AM 38.3064 -104.0967 97° East 537 618 35,000  Level Denver Center
11:29AM 38.2872 -103.9139 98° East 542 624 35,000  Level Denver Center
11:30AM 38.2681 -103.7297 97° East 546 628 35,000  Level Denver Center
11:31AM 38.2469 -103.5147 97° East 548 631 35,000  Level Denver Center
11:32AM 38.2261 -103.3306 98° East 547 629 35,000  Level Denver Center
11:33AM 38.2044 -103.1169 97° East 544 626 35,000  Level Denver Center
11:34AM 38.1811 -102.9175 98° East 548 631 35,000  Level Denver Center
11:35AM 38.1614 -102.7353 98° East 545 627 35,000  Level Denver Center
11:36AM 38.1381 -102.5214 98° East 548 631 35,000  Level Denver Center
11:37AM 38.1158 -102.3392 99° East 549 632 35,000  Level Denver Center
11:38AM 38.0911 -102.1264 98° East 546 628 35,000  Level Denver Center
11:39AM 38.0703 -101.9431 98° East 548 631 35,000  Level Denver Center
11:40AM 38.0478 -101.7600 99° East 548 631 35,000  Level Denver Center
11:41AM 38.0222 -101.5450 99° East 551 634 35,000  Level Denver Center
11:42AM 38.0003 -101.3614 99° East 550 633 35,000  Level Denver Center
11:43AM 37.9725 -101.1461 99° East 551 634 35,000  Level Denver Center
11:44AM 37.9489 -100.9606 99° East 552 635 35,000  Level Denver Center
11:45AM 37.9208 -100.7431 99° East 553 636 35,000  Level Denver Center
11:46AM 37.8872 -100.5597 103° East 550 633 35,000  Level Kansas City Center
11:47AM 37.8394 -100.3497 106° East 552 635 35,000  Level Kansas City Center
11:48AM 37.8008 -100.1711 105° East 550 633 35,000  Level Kansas City Center
11:49AM 37.7567 -99.9614 105° East 550 633 35,000  Level Kansas City Center
11:50AM 37.7194 -99.7822 105° East 550 633 35,000  Level Kansas City Center
11:51AM 37.6811 -99.6050 105° East 547 629 35,000  Level Kansas City Center
11:52AM 37.6428 -99.4236 105° East 548 631 35,000  Level Kansas City Center
11:53AM 37.5939 -99.2008 105° East 550 633 35,000  Level Kansas City Center
11:54AM 37.5494 -99.0136 107° East 556 640 35,000  Level Kansas City Center
11:56AM 37.5081 -98.8289 106° East 555 639 35,000  Level Kansas City Center
11:57AM 37.4658 -98.6439 106° East 553 636 35,000  Level Kansas City Center
11:58AM 37.4239 -98.4594 106° East 553 636 35,000  Level Kansas City Center
11:59AM 37.3744 -98.2403 106° East 551 634 35,000  Level Kansas City Center
12:00PM 37.3311 -98.0586 107° East 550 633 35,000  Level Kansas City Center
12:01PM 37.2878 -97.8778 107° East 548 631 35,000  Level Kansas City Center
12:02PM 37.2444 -97.6956 107° East 549 632 35,000  Level Kansas City Center
12:03PM 37.2011 -97.5114 106° East 552 635 35,000  Level Kansas City Center
12:04PM 37.1483 -97.2933 107° East 550 633 35,000  Level Kansas City Center
12:05PM 37.0875 -97.1161 113° Southeast 557 641 35,000  Level Kansas City Center
12:06PM 37.0119 -96.9525 120° Southeast 550 633 35,000  Level Kansas City Center
12:07PM 36.9369 -96.7856 119° Southeast 550 633 35,000  Level Kansas City Center
12:08PM 36.8494 -96.5961 120° Southeast 548 631 35,000  Level Kansas City Center
12:09PM 36.8056 -96.4133 107° East 547 629 35,000  Level Kansas City Center
12:10PM 36.7633 -96.2308 106° East 548 631 35,000  Level Kansas City Center
12:11PM 36.7211 -96.0500 106° East 544 626 35,000  Level Kansas City Center
12:12PM 36.6769 -95.8678 107° East 546 628 35,000  Level Kansas City Center
12:13PM 36.6239 -95.6908 110° East 544 626 35,000  Level Kansas City Center
12:14PM 36.5586 -95.4942 112° Southeast 546 628 35,000  Level Kansas City Center
12:15PM 36.5189 -95.3133 105° East 544 626 35,000  Level Kansas City Center
12:16PM 36.4775 -95.1333 106° East 542 624 35,000  Level Kansas City Center
12:17PM 36.4381 -94.9625 106° East 544 626 35,000  Level Kansas City Center
12:18PM 36.3883 -94.7467 106° East 540 621 35,000  Level Kansas City Center
12:19PM 36.3472 -94.5672 106° East 540 621 35,000  Level Kansas City Center
12:20PM 36.3058 -94.3878 106° East 540 621 35,000  Level Kansas City Center
12:21PM 36.2647 -94.2092 106° East 539 620 35,000  Level Kansas City Center
12:22PM 36.2122 -93.9892 106° East 542 624 35,000  Level Memphis Center
12:23PM 36.1606 -93.8197 111° Southeast 542 624 35,000  Level Memphis Center
12:24PM 36.1092 -93.6428 110° East 542 624 35,000  Level Memphis Center
12:25PM 36.0614 -93.4689 109° East 537 618 35,000  Level Memphis Center
12:26PM 36.0136 -93.2925 108° East 537 618 35,000  Level Memphis Center
12:27PM 35.9633 -93.1217 110° East 531 611 35,000  Level Memphis Center
12:28PM 35.9131 -92.9431 109° East 536 617 35,000 -420 Level Memphis Center
12:29PM 35.8642 -92.7725 109° East 531 611 34,200 -900 Descending Memphis Center
12:30PM 35.8153 -92.5994 109° East 531 611 33,200 -600 Descending Memphis Center
12:31PM 35.7639 -92.4319 111° Southeast 531 611 33,000 -120 Descending Memphis Center
12:32PM 35.7147 -92.2619 110° East 531 611 33,000  Level Memphis Center
12:33PM 35.6650 -92.0894 109° East 531 611 33,000  Level Memphis Center
12:34PM 35.6131 -91.9172 110° East 531 611 33,000  Level Memphis Center
12:35PM 35.5608 -91.7478 111° Southeast 531 611 33,000  Level Memphis Center
12:36PM 35.5106 -91.5761 110° East 531 611 33,000  Level Memphis Center
12:37PM 35.4678 -91.4406 111° Southeast 531 611 33,000  Level Memphis Center
12:38PM 35.4089 -91.2358 109° East 531 611 33,000  Level Memphis Center
12:39PM 35.3578 -91.0700 111° Southeast 531 611 33,000  Level Memphis Center
12:40PM 35.3067 -90.9042 111° Southeast 531 611 33,000  Level Memphis Center
12:41PM 35.2531 -90.7358 111° Southeast 531 611 33,000  Level Memphis Center
12:42PM 35.2011 -90.5706 111° Southeast 526 605 33,000  Level Memphis Center
12:43PM 35.1492 -90.4028 111° Southeast 531 611 33,000  Level Memphis Center
12:44PM 35.0950 -90.2328 111° Southeast 531 611 33,000  Level Memphis Center
12:45PM 35.0489 -90.0856 111° Southeast 531 611 33,000  Level Memphis Center
12:46PM 35.0086 -89.9158 106° East 531 611 33,000  Level Memphis Center
12:47PM 34.9850 -89.7361 99° East 526 605 33,000  Level Memphis Center
12:48PM 34.9525 -89.5386 101° East 531 611 33,000  Level Memphis Center
12:49PM 34.9242 -89.3667 101° East 525 604 33,000  Level Memphis Center
12:50PM 34.8997 -89.1950 100° East 520 598 33,000  Level Memphis Center
12:51PM 34.8728 -89.0231 101° East 526 605 33,000  Level Memphis Center
12:52PM 34.8458 -88.8489 101° East 526 605 33,000  Level Memphis Center
12:53PM 34.8186 -88.6750 101° East 526 605 33,000  Level Memphis Center
12:54PM 34.7933 -88.5211 101° East 526 605 33,000  Level Memphis Center
12:55PM 34.7678 -88.3497 100° East 517 595 33,000  Level Memphis Center
12:56PM 34.7400 -88.1786 101° East 517 595 33,000  Level Memphis Center
12:57PM 34.7136 -88.0000 100° East 531 611 33,000 -240 Level Memphis Center
12:58PM 34.6853 -87.8264 101° East 525 604 32,600 -660 Descending Memphis Center
12:59PM 34.6525 -87.6583 103° East 519 597 31,700 -840 Descending Memphis Center
01:00PM 34.6281 -87.4975 100° East 501 577 31,000 -360 Descending Memphis Center
01:02PM 34.5886 -87.2736 102° East 511 588 31,000  Level Atlanta Center
01:03PM 34.5575 -87.1058 103° East 506 582 31,000  Level Atlanta Center
01:04PM 34.5239 -86.9408 104° East 506 582 31,000  Level Atlanta Center
01:05PM 34.4922 -86.7708 103° East 511 588 31,000 -300 Level Atlanta Center
01:06PM 34.4606 -86.6061 103° East 506 582 30,400 -840 Descending Atlanta Center
01:07PM 34.4303 -86.4489 103° East 495 570 29,400 -1,080 Descending Atlanta Center
01:08PM 34.4019 -86.2944 102° East 482 555 28,300 -1,140 Descending Atlanta Center
01:09PM 34.3711 -86.1428 104° East 471 542 27,200 -1,140 Descending Atlanta Center
01:10PM 34.3403 -85.9911 104° East 466 536 26,100 -1,620 Descending Atlanta Center
01:11PM 34.3111 -85.8394 103° East 461 531 24,000 -2,220 Descending Atlanta Center
01:12PM 34.2822 -85.6856 103° East 436 502 21,700 -2,160 Descending Atlanta Center
01:13PM 34.2525 -85.5517 105° East 419 482 19,700 -1,980 Descending Atlanta Center
01:14PM 34.2247 -85.4181 104° East 407 468 17,800 -2,040 Descending Atlanta Center
01:15PM 34.2031 -85.3072 103° East 394 453 15,700 -1,800 Descending Atlanta Center
01:16PM 34.1772 -85.1914 105° East 373 429 14,300 -1,380 Descending Atlanta Center
01:17PM 34.1444 -85.0931 112° Southeast 330 380 13,000 -660 Descending Atlanta Center
01:18PM 34.0847 -85.0169 133° Southeast 309 356 13,000 -540 Level Atlanta Center
01:19PM 34.0078 -84.9786 158° South 294 338 12,000 -1,260 Descending Atlanta Center
01:20PM 33.9308 -84.9500 163° South 294 338 10,500 -1,080 Descending Atlanta Center
01:21PM 33.8536 -84.9294 168° South 288 331 9,900 -840 Descending Atlanta Center
01:22PM 33.7722 -84.9233 176° South 288 331 8,900 -1,320 Descending Atlanta Center
01:23PM 33.6972 -84.9128 173° South 288 331 7,300 -960 Descending Atlanta Center
01:24PM 33.6456 -84.8447 132° Southeast 248 285 7,000 -540 Descending Atlanta Center
01:24PM 33.6333 -84.8000 108° East 269 310 6,600 -1,080 Descending Atlanta TRACON
01:25PM 33.6333 -84.7167 90° East 255 293 5,500 -1,200 Descending Atlanta TRACON
01:26PM 33.6333 -84.6333 90° East 225 259 4,200 -1,320 Descending Atlanta TRACON